Time;durP1;ratioP1;P1;durP2;ratioP2;P2;SDS_P1;SDS_P2;PMS_P1;PMS_P2;Temp;Humidity;BMP_temperature;BMP_pressure;BME280_temperature;BME280_humidity;BME280_pressure;Samples;Min_cycle;Max_cycle;Signal;HPM_P1;HPM_P2
2022/04/04 00:00:21;;;;;;;12.35;8.52;;;;;;;5.85;57.61;101145.41;5074741;28;20366;-45
2022/04/04 00:02:47;;;;;;;11.23;7.93;;;;;;;5.83;56.97;101137.53;5074974;28;20108;-44
2022/04/04 00:05:13;;;;;;;11.80;8.13;;;;;;;5.85;56.80;101129.41;5075293;28;20497;-43
2022/04/04 00:07:39;;;;;;;8.20;7.50;;;;;;;5.86;56.26;101142.59;5075044;28;20485;-43
2022/04/04 00:10:05;;;;;;;13.20;8.82;;;;;;;5.75;57.55;101116.94;5075168;28;20073;-43
2022/04/04 00:12:31;;;;;;;9.73;7.38;;;;;;;5.82;57.23;101118.06;5074435;28;20044;-43
2022/04/04 00:14:57;;;;;;;10.65;7.80;;;;;;;5.73;57.11;101107.44;5073294;28;20037;-43
2022/04/04 00:17:23;;;;;;;8.80;6.95;;;;;;;5.62;57.26;101087.13;5073383;28;20025;-43
2022/04/04 00:19:49;;;;;;;8.98;7.90;;;;;;;5.76;58.46;101110.66;5074158;28;20028;-43
2022/04/04 00:22:14;;;;;;;8.73;6.53;;;;;;;5.75;58.06;101086.81;5073852;28;20035;-45
2022/04/04 00:24:40;;;;;;;7.75;6.95;;;;;;;5.81;58.23;101099.53;5074697;28;20024;-42
2022/04/04 00:27:07;;;;;;;8.55;7.55;;;;;;;5.80;58.37;101096.03;5074342;28;20072;-43
2022/04/04 00:29:32;;;;;;;7.88;6.82;;;;;;;5.81;58.98;101083.53;5073152;28;20036;-43
2022/04/04 00:31:58;;;;;;;7.78;7.03;;;;;;;5.75;58.79;101079.63;5073234;28;20086;-43
2022/04/04 00:34:24;;;;;;;9.02;6.70;;;;;;;5.79;58.15;101070.38;5074254;28;20481;-43
2022/04/04 00:36:50;;;;;;;10.30;6.30;;;;;;;5.79;57.55;101059.72;5074214;28;20031;-44
2022/04/04 00:39:16;;;;;;;12.52;6.68;;;;;;;5.76;58.03;101062.69;5073955;28;20032;-47
2022/04/04 00:41:43;;;;;;;6.97;6.28;;;;;;;5.80;57.83;101056.06;5074474;28;20021;-44
2022/04/04 00:44:09;;;;;;;8.25;5.97;;;;;;;5.77;57.81;101051.00;5073039;28;20029;-47
2022/04/04 00:46:40;;;;;;;6.47;5.32;;;;;;;5.80;57.67;101050.72;5074677;28;20044;-45
2022/04/04 00:49:06;;;;;;;6.47;5.47;;;;;;;5.77;57.00;101034.19;5073840;28;20052;-45
2022/04/04 00:51:32;;;;;;;7.57;5.93;;;;;;;5.83;56.60;101038.91;5074267;28;20032;-44
2022/04/04 00:53:58;;;;;;;6.18;5.57;;;;;;;5.82;57.31;101032.75;5074072;28;20385;-49
2022/04/04 00:56:27;;;;;;;6.20;5.60;;;;;;;5.83;57.26;101030.94;5074334;28;20036;-49
2022/04/04 00:58:54;;;;;;;8.02;6.07;;;;;;;5.83;56.43;101033.59;5074014;28;20071;-45
2022/04/04 01:01:22;;;;;;;6.97;5.78;;;;;;;5.86;56.87;101032.47;5073967;28;20052;-43
2022/04/04 01:03:50;;;;;;;6.45;5.20;;;;;;;5.80;56.81;101005.41;5073801;28;20389;-47
2022/04/04 01:06:24;;;;;;;8.68;6.00;;;;;;;5.85;57.43;101020.13;5073980;28;20087;-46
2022/04/04 01:08:55;;;;;;;6.97;5.45;;;;;;;5.84;58.07;101016.63;5073765;28;20033;-47
2022/04/04 01:11:30;;;;;;;6.45;5.75;;;;;;;5.83;57.86;101014.94;5072500;28;20112;-44
2022/04/04 01:14:07;;;;;;;7.85;4.95;;;;;;;5.81;58.09;101008.91;5074159;28;20032;-46
2022/04/04 01:16:38;;;;;;;7.53;5.47;;;;;;;5.73;58.01;100999.00;5073498;28;20036;-43
2022/04/04 01:19:04;;;;;;;5.63;5.13;;;;;;;5.74;58.74;100986.50;5072383;28;20485;-45
2022/04/04 01:21:30;;;;;;;5.50;4.95;;;;;;;5.81;58.31;100984.94;5073801;28;20067;-44
2022/04/04 01:24:05;;;;;;;7.65;5.18;;;;;;;5.78;58.29;100983.41;5074515;28;20112;-44
2022/04/04 01:26:33;;;;;;;5.60;5.10;;;;;;;5.78;59.07;100982.59;5089123;28;20504;-46
2022/04/04 01:29:05;;;;;;;6.47;5.50;;;;;;;5.72;59.40;100970.69;5074548;28;20056;-47
2022/04/04 01:31:37;;;;;;;5.82;4.80;;;;;;;5.67;59.24;100956.97;5089295;28;20374;-45
2022/04/04 01:34:03;;;;;;;5.30;4.80;;;;;;;5.75;58.87;100972.22;5075563;28;20032;-46
2022/04/04 01:36:33;;;;;;;7.07;4.65;;;;;;;5.70;58.32;100951.34;5077919;28;20077;-44
2022/04/04 01:39:03;;;;;;;4.72;4.03;;;;;;;5.72;57.88;100954.72;5076588;28;20028;-46
2022/04/04 01:41:35;;;;;;;11.60;4.93;;;;;;;5.77;58.49;100938.25;5076583;28;20135;-47
2022/04/04 01:44:01;;;;;;;5.70;4.20;;;;;;;5.74;58.78;100928.75;5076767;28;20078;-45
2022/04/04 01:46:28;;;;;;;4.20;3.90;;;;;;;5.78;58.62;100939.94;5076928;28;20075;-46
2022/04/04 01:51:39;;;;;;;;;;;;;;;5.76;59.75;100929.44;5077658;28;20029;-45
2022/04/04 01:54:11;;;;;;;5.07;4.57;;;;;;;5.73;59.93;100910.22;5076332;28;19912;-45
2022/04/04 01:56:37;;;;;;;6.65;4.20;;;;;;;5.75;60.26;100909.09;5077646;28;20032;-45
2022/04/04 01:59:04;;;;;;;8.55;4.45;;;;;;;5.68;59.97;100902.69;5077438;28;20028;-46
2022/04/04 02:04:12;;;;;;;7.57;5.13;;;;;;;5.54;60.31;100879.25;5077387;28;20025;-44
2022/04/04 02:06:44;;;;;;;12.45;4.80;;;;;;;5.68;61.09;100880.53;5059401;28;20044;-47
2022/04/04 02:09:10;;;;;;;8.15;5.55;;;;;;;5.76;61.24;100889.44;5076247;28;20029;-44
2022/04/04 02:11:36;;;;;;;7.35;4.68;;;;;;;5.76;62.05;100896.63;5077976;28;20126;-46
2022/04/04 02:14:03;;;;;;;6.93;4.88;;;;;;;5.75;62.25;100895.75;5077635;28;20025;-45
2022/04/04 02:16:29;;;;;;;10.68;5.13;;;;;;;5.72;63.55;100879.22;5093305;28;20032;-47
2022/04/04 02:18:57;;;;;;;5.05;4.45;;;;;;;5.68;64.31;100881.38;5075895;28;20465;-46
2022/04/04 02:21:24;;;;;;;8.27;4.70;;;;;;;5.67;64.62;100877.03;5077597;28;20111;-46
2022/04/04 02:23:52;;;;;;;8.25;4.53;;;;;;;5.52;65.25;100851.91;5076067;28;20035;-44
2022/04/04 02:26:23;;;;;;;8.32;4.80;;;;;;;5.59;65.00;100860.94;5077621;28;20037;-44
2022/04/04 02:28:54;;;;;;;6.55;4.43;;;;;;;5.61;66.25;100861.66;5076108;28;20536;-48
2022/04/04 02:31:24;;;;;;;5.75;4.65;;;;;;;5.54;66.87;100860.59;5076833;28;20043;-45
2022/04/04 02:33:53;;;;;;;5.15;4.63;;;;;;;5.56;67.13;100858.63;5076892;28;20135;-47
2022/04/04 02:36:20;;;;;;;5.53;4.53;;;;;;;5.54;67.78;100857.94;5077407;28;20055;-45
2022/04/04 02:38:49;;;;;;;8.10;4.35;;;;;;;5.51;68.72;100851.06;5075575;28;20036;-44
2022/04/04 02:41:19;;;;;;;7.22;4.70;;;;;;;5.47;69.70;100841.69;5077041;28;20033;-45
2022/04/04 02:43:45;;;;;;;7.35;4.35;;;;;;;5.42;69.58;100838.66;5092516;28;20040;-45
2022/04/04 02:46:12;;;;;;;4.95;4.10;;;;;;;5.38;70.96;100834.63;5076023;28;20031;-45
2022/04/04 02:48:42;;;;;;;7.20;4.00;;;;;;;5.38;71.26;100827.44;5075457;28;20040;-45
2022/04/04 02:51:11;;;;;;;5.10;4.45;;;;;;;5.36;71.73;100818.78;5058450;28;20120;-45
2022/04/04 02:53:38;;;;;;;8.30;3.90;;;;;;;5.34;71.74;100814.59;5091576;28;20036;-45
2022/04/04 02:58:54;;;;;;;7.78;4.10;;;;;;;5.22;72.14;100785.53;5075327;28;20075;-46
2022/04/04 03:01:22;;;;;;;8.05;3.40;;;;;;;5.24;73.40;100780.06;5075375;28;20125;-46
2022/04/04 03:03:48;;;;;;;5.57;3.85;;;;;;;5.21;74.14;100778.53;5076521;28;20039;-47
2022/04/04 03:06:17;;;;;;;5.25;3.55;;;;;;;5.18;74.02;100770.84;5076256;28;20373;-46
2022/04/04 03:08:46;;;;;;;5.57;3.60;;;;;;;5.15;74.67;100768.47;5076270;28;20029;-46
2022/04/04 03:11:15;;;;;;;8.35;3.67;;;;;;;5.13;74.01;100757.16;5074995;28;20037;-46
2022/04/04 03:13:45;;;;;;;5.63;3.80;;;;;;;5.09;74.87;100752.25;5076278;28;20408;-47
2022/04/04 03:16:16;;;;;;;7.20;3.97;;;;;;;5.07;75.26;100747.13;5076237;28;20028;-45
2022/04/04 03:18:46;;;;;;;5.57;3.85;;;;;;;5.04;74.65;100753.56;5091680;28;20035;-45
2022/04/04 03:21:18;;;;;;;7.65;3.88;;;;;;;4.99;74.55;100739.03;5074575;28;20037;-43
2022/04/04 03:23:49;;;;;;;5.72;4.10;;;;;;;4.93;75.29;100721.84;5074782;28;20029;-45
2022/04/04 03:26:17;;;;;;;6.88;3.90;;;;;;;4.89;75.35;100716.97;5058492;28;20043;-45
2022/04/04 03:28:43;;;;;;;9.82;4.40;;;;;;;4.84;75.18;100706.78;5074229;28;20033;-45
2022/04/04 03:31:10;;;;;;;8.55;4.55;;;;;;;4.94;76.05;100709.38;5075736;28;20101;-44
2022/04/04 03:33:37;;;;;;;4.75;4.32;;;;;;;4.91;76.72;100704.38;5075791;28;20036;-43
2022/04/04 03:38:52;;;;;;;5.50;4.55;;;;;;;4.87;76.09;100694.97;5075545;28;20574;-44
2022/04/04 03:41:20;;;;;;;9.25;4.70;;;;;;;4.91;76.64;100683.06;5057539;28;20040;-45
2022/04/04 03:43:52;;;;;;;11.10;4.78;;;;;;;4.90;77.51;100668.91;5075030;28;20059;-44
2022/04/04 03:46:23;;;;;;;7.03;4.72;;;;;;;4.90;78.02;100670.75;5090753;28;20435;-44
2022/04/04 03:48:53;;;;;;;8.02;4.35;;;;;;;4.92;78.14;100660.78;5073511;28;20170;-44
2022/04/04 03:51:22;;;;;;;9.57;4.65;;;;;;;4.89;77.87;100653.94;5090645;28;20507;-44
2022/04/04 03:53:51;;;;;;;10.13;4.93;;;;;;;4.94;78.75;100670.31;5074133;28;20043;-45
2022/04/04 03:56:22;;;;;;;11.75;5.45;;;;;;;4.96;78.75;100662.13;5073712;28;20028;-45
2022/04/04 03:59:07;;;;;;;6.13;4.85;;;;;;;4.95;78.91;100655.16;5075381;28;20039;-46
2022/04/04 04:01:34;;;;;;;8.80;4.82;;;;;;;4.95;79.57;100649.84;5074773;28;20072;-44
2022/04/04 04:04:01;;;;;;;9.98;5.13;;;;;;;4.97;78.97;100663.81;5074603;28;20032;-46
2022/04/04 04:06:33;;;;;;;8.10;5.00;;;;;;;4.96;79.04;100656.81;5075233;28;20028;-44
2022/04/04 04:09:04;;;;;;;6.10;4.35;;;;;;;4.95;79.71;100644.53;5074655;28;20093;-45
2022/04/04 04:11:31;;;;;;;7.25;4.65;;;;;;;4.89;80.21;100599.91;5074604;28;20035;-46
2022/04/04 04:13:57;;;;;;;8.25;4.53;;;;;;;4.95;80.25;100615.25;5073659;28;20029;-46
2022/04/04 04:16:26;;;;;;;8.93;5.03;;;;;;;4.88;80.34;100612.34;5074935;28;20106;-45
2022/04/04 04:18:52;;;;;;;9.00;4.43;;;;;;;4.85;81.23;100597.53;5074697;28;20159;-46
2022/04/04 04:23:59;;;;;;;6.05;4.45;;;;;;;4.79;81.82;100574.22;5073943;28;20066;-44
2022/04/04 04:26:40;;;;;;;6.65;4.57;;;;;;;4.87;81.22;100583.22;5074218;28;20041;-45
2022/04/04 04:29:09;;;;;;;6.28;4.40;;;;;;;4.89;81.37;100584.75;5074496;28;20028;-45
2022/04/04 04:31:36;;;;;;;7.43;4.78;;;;;;;4.88;81.43;100567.09;5074960;28;20034;-46
2022/04/04 04:34:06;;;;;;;5.25;4.40;;;;;;;4.90;82.22;100574.94;5074368;28;20435;-45
2022/04/04 04:36:39;;;;;;;5.68;4.18;;;;;;;4.82;81.81;100559.75;5090139;28;20043;-44
2022/04/04 04:39:07;;;;;;;7.13;4.50;;;;;;;4.89;81.47;100555.50;5074042;28;20047;-44
2022/04/04 04:41:34;;;;;;;6.93;4.35;;;;;;;4.93;81.58;100572.00;5074676;28;20454;-44
2022/04/04 04:44:05;;;;;;;7.82;4.63;;;;;;;4.93;81.71;100550.69;5073339;28;20435;-46
2022/04/04 04:46:33;;;;;;;10.63;5.20;;;;;;;4.94;81.31;100550.53;5075453;28;20033;-44
2022/04/04 04:49:00;;;;;;;8.02;4.78;;;;;;;4.87;81.60;100543.31;5089703;28;20538;-44
2022/04/04 04:51:30;;;;;;;5.75;4.55;;;;;;;4.90;81.60;100543.00;5073303;28;20466;-45
2022/04/04 04:53:57;;;;;;;8.10;5.15;;;;;;;4.88;82.38;100537.84;5073146;28;20030;-48
2022/04/04 04:56:27;;;;;;;6.50;4.72;;;;;;;4.86;82.52;100545.16;5073103;28;20062;-46
2022/04/04 04:58:56;;;;;;;7.85;4.60;;;;;;;4.85;82.44;100535.50;5074328;28;20037;-45
2022/04/04 05:01:23;;;;;;;4.68;4.28;;;;;;;4.83;82.18;100533.00;5089164;28;20163;-45
2022/04/04 05:03:51;;;;;;;7.47;4.80;;;;;;;4.85;82.67;100540.84;5074459;28;20025;-45
2022/04/04 05:06:19;;;;;;;8.75;5.32;;;;;;;4.83;82.86;100540.97;5074193;28;20112;-46
2022/04/04 05:08:49;;;;;;;5.20;4.70;;;;;;;4.85;82.05;100536.34;5088721;28;20059;-47
2022/04/04 05:11:18;;;;;;;5.78;5.22;;;;;;;4.81;83.39;100516.34;5089859;28;20024;-47
2022/04/04 05:13:46;;;;;;;7.25;4.75;;;;;;;4.83;83.65;100518.88;5074029;28;20037;-46
2022/04/04 05:16:14;;;;;;;10.20;5.03;;;;;;;4.85;83.10;100522.22;5073297;28;20044;-44
2022/04/04 05:18:44;;;;;;;5.80;4.97;;;;;;;4.80;83.29;100514.66;5056309;28;20063;-48
2022/04/04 05:21:15;;;;;;;5.03;4.55;;;;;;;4.78;83.34;100513.16;5056048;28;20116;-47
2022/04/04 05:23:47;;;;;;;7.97;4.30;;;;;;;4.81;84.12;100500.38;5073767;28;20390;-44
2022/04/04 05:26:17;;;;;;;6.07;4.82;;;;;;;4.81;83.48;100511.03;5074209;28;20028;-44
2022/04/04 05:28:47;;;;;;;5.43;4.70;;;;;;;4.80;84.40;100511.19;5073947;28;20025;-47
2022/04/04 05:31:17;;;;;;;6.88;4.55;;;;;;;4.78;83.96;100502.53;5074217;28;20040;-44
2022/04/04 05:33:46;;;;;;;5.55;4.85;;;;;;;4.81;84.24;100500.38;5073800;28;20047;-45
2022/04/04 05:36:16;;;;;;;4.75;4.30;;;;;;;4.81;84.24;100487.09;5074227;28;20039;-45
2022/04/04 05:38:44;;;;;;;4.93;4.43;;;;;;;4.80;83.69;100501.38;5072388;28;20044;-44
2022/04/04 05:41:17;;;;;;;7.05;5.43;;;;;;;4.81;84.21;100495.06;5074217;28;20024;-48
2022/04/04 05:43:49;;;;;;;6.18;4.13;;;;;;;4.81;83.89;100497.72;5089475;28;20036;-47
2022/04/04 05:46:20;;;;;;;11.50;4.47;;;;;;;4.81;84.22;100489.75;5074085;28;20120;-46
2022/04/04 05:48:52;;;;;;;5.82;3.95;;;;;;;4.85;84.55;100499.09;5073387;28;20040;-44
2022/04/04 05:51:25;;;;;;;4.85;4.38;;;;;;;4.87;84.50;100492.75;5074142;28;20043;-44
2022/04/04 05:53:53;;;;;;;9.43;4.30;;;;;;;4.88;83.93;100494.44;5073437;28;20033;-43
2022/04/04 05:56:21;;;;;;;4.72;4.20;;;;;;;4.89;84.26;100488.97;5073877;28;20025;-45
2022/04/04 05:58:51;;;;;;;7.55;4.40;;;;;;;4.93;85.19;100481.50;5074263;28;20119;-44
2022/04/04 06:01:21;;;;;;;4.35;3.95;;;;;;;4.91;84.50;100473.69;5072213;28;20088;-47
2022/04/04 06:03:52;;;;;;;5.43;4.35;;;;;;;4.85;84.05;100463.66;5073571;28;20036;-46
2022/04/04 06:06:22;;;;;;;4.50;4.00;;;;;;;4.99;84.49;100472.88;5074144;28;20036;-46
2022/04/04 06:08:52;;;;;;;4.13;3.67;;;;;;;4.96;84.66;100463.41;5072754;28;20067;-49
2022/04/04 06:11:20;;;;;;;6.90;4.10;;;;;;;4.94;84.29;100461.88;5074652;28;20036;-45
2022/04/04 06:13:52;;;;;;;8.32;3.65;;;;;;;4.97;83.90;100473.03;5074357;28;20507;-45
2022/04/04 06:16:23;;;;;;;5.90;3.97;;;;;;;5.03;83.86;100472.44;5074750;28;20052;-47
2022/04/04 06:18:50;;;;;;;5.75;3.88;;;;;;;5.06;84.17;100465.94;5073963;28;20032;-47
2022/04/04 06:21:19;;;;;;;4.13;3.72;;;;;;;5.10;85.10;100472.63;5079250;28;20028;-46
2022/04/04 06:23:46;;;;;;;5.95;4.80;;;;;;;5.13;85.02;100471.50;5078763;28;20032;-46
2022/04/04 06:26:13;;;;;;;7.88;6.13;;;;;;;5.14;84.72;100463.31;5078653;28;20068;-45
2022/04/04 06:28:44;;;;;;;4.57;4.18;;;;;;;5.18;84.85;100451.38;5076931;28;20086;-46
2022/04/04 06:31:17;;;;;;;4.55;4.05;;;;;;;5.21;85.28;100443.06;5077686;28;20090;-45
2022/04/04 06:33:55;;;;;;;5.78;3.53;;;;;;;5.22;85.36;100443.91;5075839;28;20037;-44
2022/04/04 06:36:26;;;;;;;5.38;3.35;;;;;;;5.19;85.02;100433.56;5078190;28;20553;-45
2022/04/04 06:38:54;;;;;;;3.90;3.60;;;;;;;5.16;85.29;100428.56;5078678;28;20032;-48
2022/04/04 06:41:26;;;;;;;3.58;3.28;;;;;;;5.31;85.18;100442.09;5077651;28;20044;-45
2022/04/04 06:44:02;;;;;;;3.60;3.28;;;;;;;5.32;85.47;100435.78;5059187;28;20477;-45
2022/04/04 06:46:38;;;;;;;4.05;3.45;;;;;;;5.34;85.18;100444.47;5059316;28;20036;-44
2022/04/04 06:49:12;;;;;;;4.03;3.63;;;;;;;5.30;85.07;100430.63;5076667;28;20025;-45
2022/04/04 06:51:41;;;;;;;5.50;3.40;;;;;;;5.29;85.80;100428.94;5076232;28;20415;-49
2022/04/04 06:54:07;;;;;;;3.80;3.47;;;;;;;5.35;85.76;100438.13;5075614;28;20035;-46
2022/04/04 06:59:31;;;;;;;3.15;2.95;;;;;;;5.34;85.85;100421.31;5076706;28;20045;-44
2022/04/04 07:01:56;;;;;;;3.92;3.40;;;;;;;5.42;86.00;100417.84;5075699;28;20448;-46
2022/04/04 07:04:22;;;;;;;4.00;2.95;;;;;;;5.48;86.33;100401.25;5076197;28;20024;-48
2022/04/04 07:06:48;;;;;;;3.47;3.05;;;;;;;5.51;86.03;100410.72;5074861;28;20108;-48
2022/04/04 07:09:13;;;;;;;3.63;3.30;;;;;;;5.48;85.84;100405.72;5076225;28;20097;-45
2022/04/04 07:11:40;;;;;;;3.83;2.95;;;;;;;5.54;85.91;100411.25;5074565;28;20043;-45
2022/04/04 07:14:21;;;;;;;5.47;2.95;;;;;;;5.58;85.84;100407.25;5074800;28;20116;-47
2022/04/04 07:17:02;;;;;;;3.85;3.00;;;;;;;5.60;86.08;100418.56;5076443;28;20031;-45
2022/04/04 07:19:33;;;;;;;3.20;2.90;;;;;;;5.61;86.14;100412.25;5076068;28;20174;-48
2022/04/04 07:22:01;;;;;;;3.38;3.08;;;;;;;5.63;86.42;100398.78;5076017;28;20135;-45
2022/04/04 07:24:26;;;;;;;4.47;2.88;;;;;;;5.69;86.52;100406.13;5076232;28;20016;-45
2022/04/04 07:26:53;;;;;;;4.45;3.10;;;;;;;5.74;86.73;100406.47;5075492;28;20028;-45
2022/04/04 07:29:18;;;;;;;2.97;2.78;;;;;;;5.72;86.86;100399.59;5075309;28;20040;-45
2022/04/04 07:34:25;;;;;;;3.05;2.85;;;;;;;5.79;86.49;100392.63;5074994;28;20036;-45
2022/04/04 07:36:51;;;;;;;3.55;2.40;;;;;;;5.89;86.04;100395.13;5074095;28;20033;-50
2022/04/04 07:39:16;;;;;;;2.97;2.03;;;;;;;5.86;86.51;100382.16;5074268;28;20040;-45
2022/04/04 07:41:42;;;;;;;2.70;2.50;;;;;;;5.85;86.06;100396.47;5074572;28;20349;-45
2022/04/04 07:44:09;;;;;;;2.50;2.30;;;;;;;5.90;85.90;100396.81;5074371;28;20118;-48
2022/04/04 07:49:17;;;;;;;2.08;1.95;;;;;;;5.96;86.50;100399.69;5075679;28;20032;-48
2022/04/04 07:51:42;;;;;;;2.25;2.05;;;;;;;5.93;86.43;100373.34;5074435;28;20036;-48
2022/04/04 07:54:08;;;;;;;2.13;2.03;;;;;;;5.89;86.80;100384.47;5075037;28;20492;-46
2022/04/04 07:56:34;;;;;;;2.47;2.28;;;;;;;5.91;87.52;100372.66;5074317;28;20468;-45
2022/04/04 07:58:59;;;;;;;2.50;2.30;;;;;;;6.04;86.90;100379.38;5075987;28;20038;-46
2022/04/04 08:01:25;;;;;;;3.03;1.90;;;;;;;6.06;87.43;100385.38;5090196;28;20044;-45
2022/04/04 08:03:51;;;;;;;2.28;2.10;;;;;;;6.06;86.81;100380.06;5075014;28;20103;-48
2022/04/04 08:06:17;;;;;;;2.20;2.00;;;;;;;6.08;87.19;100378.03;5074550;28;20044;-47
2022/04/04 08:08:42;;;;;;;2.10;2.00;;;;;;;6.10;87.23;100384.88;5075488;28;20033;-46
2022/04/04 08:11:09;;;;;;;2.20;2.10;;;;;;;6.09;87.35;100372.56;5074003;28;20028;-47
2022/04/04 08:13:34;;;;;;;2.20;2.10;;;;;;;6.18;87.59;100374.22;5075024;28;20465;-47
2022/04/04 08:16:00;;;;;;;3.25;2.17;;;;;;;6.26;86.61;100377.84;5075404;28;20059;-47
2022/04/04 08:18:26;;;;;;;2.20;2.00;;;;;;;6.27;86.55;100351.03;5075528;28;20441;-46
2022/04/04 08:20:52;;;;;;;2.13;2.00;;;;;;;6.43;86.89;100365.38;5074862;28;20028;-45
2022/04/04 08:23:18;;;;;;;1.88;1.77;;;;;;;6.48;86.01;100365.66;5075145;28;20033;-46
2022/04/04 08:25:43;;;;;;;3.45;2.03;;;;;;;6.50;86.05;100363.66;5074090;28;20035;-46
2022/04/04 08:28:09;;;;;;;2.28;1.90;;;;;;;6.51;86.72;100368.81;5074830;28;20036;-51
2022/04/04 08:30:50;;;;;;;1.98;1.88;;;;;;;6.55;86.36;100364.81;5073647;28;20040;-45
2022/04/04 08:33:18;;;;;;;1.95;1.85;;;;;;;6.54;86.49;100354.34;5074595;28;20040;-46
2022/04/04 08:35:45;;;;;;;1.77;1.67;;;;;;;6.59;87.01;100350.16;5074049;28;20035;-48
2022/04/04 08:38:13;;;;;;;2.20;2.00;;;;;;;6.57;86.50;100344.16;5074381;28;20028;-46
2022/04/04 08:40:38;;;;;;;1.88;1.77;;;;;;;6.81;86.27;100361.09;5074511;28;20303;-48
2022/04/04 08:43:25;;;;;;;2.80;1.90;;;;;;;6.87;85.45;100341.72;5072074;28;20029;-44
2022/04/04 08:45:51;;;;;;;2.13;2.03;;;;;;;6.96;85.48;100348.72;5074018;28;20040;-45
2022/04/04 08:48:17;;;;;;;2.20;2.10;;;;;;;6.96;85.73;100358.53;5056254;28;20028;-44
2022/04/04 08:50:43;;;;;;;2.22;2.13;;;;;;;7.01;86.14;100358.84;5074238;28;20036;-46
2022/04/04 08:53:10;;;;;;;3.80;2.00;;;;;;;6.96;86.43;100363.88;5073624;28;20064;-45
2022/04/04 08:55:36;;;;;;;2.58;1.80;;;;;;;6.85;86.63;100337.56;5055958;28;20123;-47
2022/04/04 08:58:03;;;;;;;2.60;2.40;;;;;;;6.98;86.46;100352.03;5089751;28;20131;-47
2022/04/04 09:00:29;;;;;;;2.55;2.35;;;;;;;7.02;87.05;100354.34;5073862;28;20052;-46
2022/04/04 09:03:02;;;;;;;2.65;2.45;;;;;;;7.01;86.31;100352.69;5072417;28;20036;-46
2022/04/04 09:05:31;;;;;;;3.28;3.08;;;;;;;7.09;86.29;100342.78;5073846;28;20040;-50
2022/04/04 09:08:07;;;;;;;2.75;2.55;;;;;;;7.11;86.90;100339.94;5074029;28;20036;-47
2022/04/04 09:10:36;;;;;;;3.03;2.83;;;;;;;7.16;86.38;100338.41;5073718;28;20040;-56
2022/04/04 09:13:09;;;;;;;3.25;3.00;;;;;;;7.24;86.38;100331.38;5072818;28;20029;-49
2022/04/04 09:15:56;;;;;;;2.63;2.42;;;;;;;7.35;86.07;100334.50;5073601;28;20029;-48
2022/04/04 09:18:43;;;;;;;2.67;2.47;;;;;;;7.41;86.38;100332.97;5072860;28;20028;-46
2022/04/04 09:21:14;;;;;;;3.40;2.53;;;;;;;7.45;86.32;100328.91;5072569;28;20062;-52
2022/04/04 09:23:56;;;;;;;2.60;2.40;;;;;;;7.63;85.76;100317.94;5073575;28;20053;-48
2022/04/04 09:26:41;;;;;;;2.30;2.20;;;;;;;7.66;85.55;100317.59;5074093;28;20077;-46
2022/04/04 09:29:14;;;;;;;2.35;2.15;;;;;;;7.63;86.21;100306.41;5074723;28;20039;-47
2022/04/04 09:31:53;;;;;;;2.53;2.30;;;;;;;7.63;86.42;100317.09;5073680;28;20031;-45
2022/04/04 09:34:19;;;;;;;1.98;1.88;;;;;;;7.72;85.71;100314.19;5072387;28;20032;-50
2022/04/04 09:36:47;;;;;;;3.15;2.90;;;;;;;7.86;85.98;100309.09;5072382;28;20477;-45
2022/04/04 09:39:15;;;;;;;3.00;2.65;;;;;;;7.93;85.70;100305.50;5072479;28;20533;-44
2022/04/04 09:41:41;;;;;;;2.70;2.33;;;;;;;7.98;85.71;100296.94;5073735;28;20065;-44
2022/04/04 09:44:09;;;;;;;3.10;2.90;;;;;;;8.03;85.05;100310.59;5073550;28;20354;-43
2022/04/04 09:46:37;;;;;;;3.08;2.78;;;;;;;7.98;85.67;100309.47;5073553;28;20059;-44
2022/04/04 09:49:08;;;;;;;3.40;2.70;;;;;;;7.99;85.69;100303.97;5073487;28;20107;-45
2022/04/04 09:51:37;;;;;;;2.63;2.53;;;;;;;8.09;85.37;100299.16;5072452;28;20031;-46
2022/04/04 09:54:05;;;;;;;2.70;2.53;;;;;;;8.09;85.42;100301.03;5088819;28;20508;-43
2022/04/04 09:56:31;;;;;;;3.10;2.90;;;;;;;8.22;85.78;100292.38;5093599;28;20037;-47
2022/04/04 09:58:59;;;;;;;4.10;2.88;;;;;;;8.28;85.19;100289.81;5077234;28;20107;-46
2022/04/04 10:01:26;;;;;;;2.45;2.35;;;;;;;8.37;85.57;100298.56;5092821;28;20071;-46
2022/04/04 10:03:53;;;;;;;3.20;2.90;;;;;;;8.39;84.98;100293.84;5093284;28;20025;-46
2022/04/04 10:06:20;;;;;;;3.20;2.78;;;;;;;8.36;84.92;100293.41;5077445;28;20066;-45
2022/04/04 10:08:54;;;;;;;3.20;2.90;;;;;;;8.57;85.30;100282.84;5077382;28;20032;-45
2022/04/04 10:11:22;;;;;;;3.10;2.90;;;;;;;8.78;84.31;100283.94;5092621;28;20028;-46
2022/04/04 10:13:48;;;;;;;4.03;2.45;;;;;;;8.67;84.74;100283.41;5076682;28;20029;-44
2022/04/04 10:16:16;;;;;;;3.05;2.85;;;;;;;8.68;84.91;100268.97;5076993;28;20060;-45
2022/04/04 10:18:43;;;;;;;2.58;2.38;;;;;;;9.06;84.00;100284.91;5076846;28;20394;-46
2022/04/04 10:21:11;;;;;;;2.88;2.60;;;;;;;9.42;83.22;100278.69;5075700;28;20040;-46
2022/04/04 10:23:40;;;;;;;2.50;2.30;;;;;;;9.42;83.13;100272.50;5077153;28;20103;-46
2022/04/04 10:26:07;;;;;;;3.10;2.80;;;;;;;9.40;82.89;100267.34;5059449;28;20496;-47
2022/04/04 10:28:37;;;;;;;3.00;2.80;;;;;;;9.60;82.94;100261.31;5076957;28;20036;-47
2022/04/04 10:31:21;;;;;;;2.60;2.47;;;;;;;9.92;81.14;100254.59;5075732;28;20365;-46
2022/04/04 10:34:10;;;;;;;3.25;2.88;;;;;;;9.90;81.49;100275.44;5058659;28;20461;-46
2022/04/04 10:36:36;;;;;;;2.40;2.30;;;;;;;9.89;81.68;100261.16;5075502;28;20119;-48
2022/04/04 10:39:02;;;;;;;2.80;2.55;;;;;;;10.04;81.70;100262.94;5076559;28;20111;-47
2022/04/04 10:41:30;;;;;;;3.33;2.38;;;;;;;9.88;81.57;100261.38;5076739;28;20115;-49
2022/04/04 10:43:57;;;;;;;2.80;2.53;;;;;;;9.66;82.46;100264.06;5076187;28;20392;-46
2022/04/04 10:46:25;;;;;;;2.40;2.20;;;;;;;9.61;83.00;100279.09;5076148;28;20370;-47
2022/04/04 10:48:54;;;;;;;2.55;2.35;;;;;;;9.58;83.56;100266.88;5092205;28;20021;-48
2022/04/04 10:51:28;;;;;;;2.78;2.58;;;;;;;9.72;83.46;100265.16;5076760;28;20044;-45
2022/04/04 10:54:12;;;;;;;2.78;2.33;;;;;;;9.73;83.39;100258.75;5075338;28;20496;-46
2022/04/04 10:56:46;;;;;;;2.30;2.20;;;;;;;9.72;83.05;100264.34;5075959;28;20051;-46
2022/04/04 10:59:28;;;;;;;1.98;1.88;;;;;;;9.63;83.20;100253.72;5076690;28;20032;-47
2022/04/04 11:01:58;;;;;;;2.00;1.90;;;;;;;9.71;83.13;100273.38;5075422;28;20048;-49
2022/04/04 11:04:28;;;;;;;3.08;2.30;;;;;;;9.67;82.80;100260.34;5091928;28;20028;-46
2022/04/04 11:10:06;;;;;;;2.10;1.90;;;;;;;9.84;82.77;100257.41;5074131;28;20086;-45
2022/04/04 11:12:56;;;;;;;2.22;2.13;;;;;;;10.04;82.20;100260.25;5058253;28;20040;-46
2022/04/04 11:15:49;;;;;;;2.15;2.05;;;;;;;10.16;82.21;100253.34;5078022;28;20377;-48
2022/04/04 11:18:16;;;;;;;2.42;2.22;;;;;;;10.17;82.11;100259.53;5074598;28;20067;-47
2022/04/04 11:21:01;;;;;;;2.42;2.10;;;;;;;10.19;82.08;100252.09;5075504;28;20035;-46
2022/04/04 11:23:34;;;;;;;2.55;2.35;;;;;;;10.20;81.92;100254.59;5074227;28;20028;-45
2022/04/04 11:26:04;;;;;;;2.53;2.40;;;;;;;10.15;82.65;100246.28;5076029;28;20056;-49
2022/04/04 11:28:36;;;;;;;2.70;2.50;;;;;;;10.07;82.60;100241.09;5075615;28;20033;-45
2022/04/04 11:31:10;;;;;;;2.60;2.35;;;;;;;10.06;83.06;100245.59;5075616;28;20048;-44
2022/04/04 11:33:51;;;;;;;2.53;2.42;;;;;;;10.04;83.14;100231.56;5075327;28;20033;-47
2022/04/04 11:36:37;;;;;;;3.28;2.90;;;;;;;9.98;83.31;100212.75;5075184;28;20044;-48
2022/04/04 11:39:11;;;;;;;2.65;2.50;;;;;;;10.17;82.79;100228.13;5074650;28;20043;-53
2022/04/04 11:41:59;;;;;;;2.30;2.20;;;;;;;10.32;82.85;100222.69;5075160;28;20388;-45
2022/04/04 11:44:34;;;;;;;2.28;2.10;;;;;;;10.50;81.23;100214.13;5075223;28;20025;-45
2022/04/04 11:47:07;;;;;;;2.03;1.92;;;;;;;10.85;80.59;100211.38;5075394;28;20488;-45
2022/04/04 11:49:36;;;;;;;2.10;2.00;;;;;;;11.01;80.37;100229.81;5075296;28;20420;-45
2022/04/04 11:52:06;;;;;;;2.00;1.90;;;;;;;10.96;80.11;100218.03;5073708;28;20033;-49
2022/04/04 11:54:44;;;;;;;5.05;1.80;;;;;;;11.13;80.04;100221.16;5074349;28;20562;-46
2022/04/04 11:57:24;;;;;;;1.70;1.60;;;;;;;11.13;79.22;100205.03;5073962;28;20024;-47
2022/04/04 11:59:57;;;;;;;3.05;1.33;;;;;;;11.20;79.34;100216.63;5073454;28;20045;-44
2022/04/04 12:02:37;;;;;;;1.30;1.20;;;;;;;11.40;78.38;100214.81;5074400;28;20068;-47
2022/04/04 12:05:12;;;;;;;0.90;0.90;;;;;;;11.39;77.84;100221.19;5074564;28;20116;-49
2022/04/04 12:07:42;;;;;;;1.52;1.08;;;;;;;11.39;78.70;100220.38;5073703;28;20028;-44